Time;durP1;ratioP1;P1;durP2;ratioP2;P2;SDS_P1;SDS_P2;PMS_P1;PMS_P2;Temp;Humidity;BMP_temperature;BMP_pressure;BME280_temperature;BME280_humidity;BME280_pressure;Samples;Min_cycle;Max_cycle;Signal;HPM_P1;HPM_P2
2023/06/13 00:02:37;;;;;;;10.65;5.00;;;;;;;;;;5086709;28;20402;-71
2023/06/13 00:06:15;;;;;;;16.85;5.22;;;;;;;;;;5084421;28;20105;-68
2023/06/13 00:09:56;;;;;;;15.45;5.22;;;;;;;;;;5083997;28;20036;-70
2023/06/13 00:13:39;;;;;;;15.75;5.70;;;;;;;;;;5091367;28;20059;-70
2023/06/13 00:17:17;;;;;;;15.20;6.10;;;;;;;;;;5083091;28;20044;-71
2023/06/13 00:20:58;;;;;;;14.38;5.97;;;;;;;;;;5082162;28;20044;-71
2023/06/13 00:24:38;;;;;;;17.55;6.20;;;;;;;;;;5072695;28;20055;-72
2023/06/13 00:28:18;;;;;;;14.43;5.43;;;;;;;;;;5084429;28;20067;-70
2023/06/13 00:31:59;;;;;;;13.05;5.20;;;;;;;;;;5087313;28;20047;-71
2023/06/13 00:35:39;;;;;;;17.27;6.57;;;;;;;;;;5085974;28;20064;-71
2023/06/13 00:39:20;;;;;;;18.33;6.35;;;;;;;;;;5086211;28;20087;-70
2023/06/13 00:43:00;;;;;;;16.48;7.00;;;;;;;;;;5084494;28;20067;-72
2023/06/13 00:46:46;;;;;;;16.27;6.90;;;;;;;;;;5088003;28;20130;-70
2023/06/13 00:50:26;;;;;;;16.75;7.47;;;;;;;;;;5084257;28;20040;-70
2023/06/13 00:54:06;;;;;;;16.90;6.78;;;;;;;;;;5082176;28;20121;-68
2023/06/13 00:57:48;;;;;;;17.15;6.72;;;;;;;;;;5082957;28;20076;-69
2023/06/13 01:01:30;;;;;;;20.38;7.38;;;;;;;;;;5083428;28;20044;-70
2023/06/13 01:05:12;;;;;;;20.88;7.38;;;;;;;;;;5084001;28;20548;-68
2023/06/13 01:08:58;;;;;;;17.25;7.40;;;;;;;;;;5083572;28;20050;-70
2023/06/13 01:12:51;;;;;;;21.23;7.80;;;;;;;;;;5080683;28;20040;-67
2023/06/13 01:16:48;;;;;;;17.38;7.60;;;;;;;;;;5085587;28;20051;-69
2023/06/13 01:20:29;;;;;;;17.15;7.65;;;;;;;;;;5082149;28;20067;-69
2023/06/13 01:23:30;;;;;;;19.67;7.38;;;;;;;;;;5084614;28;20039;-68
2023/06/13 01:27:12;;;;;;;18.67;8.00;;;;;;;;;;5080355;28;20338;-68
2023/06/13 01:30:51;;;;;;;21.60;8.07;;;;;;;;;;5085893;28;20181;-70
2023/06/13 01:34:32;;;;;;;20.90;7.80;;;;;;;;;;5080954;28;20056;-69
2023/06/13 01:38:12;;;;;;;15.52;7.35;;;;;;;;;;5078725;28;20040;-69
2023/06/13 01:41:54;;;;;;;19.70;7.65;;;;;;;;;;5085173;28;20058;-70
2023/06/13 01:45:34;;;;;;;20.77;8.77;;;;;;;;;;5074843;28;20044;-71
2023/06/13 01:49:01;;;;;;;14.27;7.03;;;;;;;;;;5083492;28;20047;-68
2023/06/13 01:52:10;;;;;;;16.10;7.22;;;;;;;;;;5086690;28;20052;-69
2023/06/13 01:55:50;;;;;;;17.33;7.40;;;;;;;;;;5080253;28;20089;-69
2023/06/13 01:59:40;;;;;;;19.08;6.50;;;;;;;;;;5080928;28;20056;-70
2023/06/13 02:03:21;;;;;;;11.75;6.15;;;;;;;;;;5083148;28;20112;-69
2023/06/13 02:07:03;;;;;;;14.57;5.60;;;;;;;;;;5081644;28;20059;-71
2023/06/13 02:10:41;;;;;;;12.63;5.95;;;;;;;;;;5084380;28;22281;-71
2023/06/13 02:14:23;;;;;;;12.52;5.63;;;;;;;;;;5080260;28;20051;-68
2023/06/13 02:18:03;;;;;;;13.35;5.57;;;;;;;;;;5084970;28;20503;-68
2023/06/13 02:21:43;;;;;;;15.82;5.72;;;;;;;;;;5084319;28;20051;-71
2023/06/13 02:25:24;;;;;;;14.63;5.00;;;;;;;;;;5083584;28;20036;-70
2023/06/13 02:29:04;;;;;;;14.85;5.82;;;;;;;;;;5077198;28;20071;-69
2023/06/13 02:32:46;;;;;;;8.45;5.28;;;;;;;;;;5086164;28;20103;-72
2023/06/13 02:36:25;;;;;;;16.15;6.53;;;;;;;;;;5082081;28;20055;-71
2023/06/13 02:40:05;;;;;;;12.70;6.55;;;;;;;;;;5087308;28;20078;-69
2023/06/13 02:43:45;;;;;;;14.27;6.40;;;;;;;;;;5085927;28;20764;-70
2023/06/13 02:47:26;;;;;;;16.70;6.72;;;;;;;;;;5083535;28;20109;-69
2023/06/13 02:51:08;;;;;;;12.32;6.47;;;;;;;;;;5087583;28;20483;-71
2023/06/13 02:54:48;;;;;;;12.02;6.97;;;;;;;;;;5087385;28;20432;-73
2023/06/13 02:58:28;;;;;;;14.88;6.70;;;;;;;;;;5084777;28;20064;-69
2023/06/13 03:02:09;;;;;;;17.65;7.35;;;;;;;;;;5085429;28;20058;-68
2023/06/13 03:05:56;;;;;;;18.80;7.50;;;;;;;;;;5085078;28;20044;-67
2023/06/13 03:09:31;;;;;;;11.25;7.03;;;;;;;;;;5085408;28;20044;-69
2023/06/13 03:13:11;;;;;;;12.80;6.95;;;;;;;;;;5084061;28;20131;-71
2023/06/13 03:16:52;;;;;;;13.60;6.60;;;;;;;;;;5082319;28;20044;-69
2023/06/13 03:20:33;;;;;;;14.48;6.55;;;;;;;;;;5083889;28;20044;-71
2023/06/13 03:24:14;;;;;;;15.75;5.60;;;;;;;;;;5082403;28;20044;-70
2023/06/13 03:27:53;;;;;;;10.32;5.65;;;;;;;;;;5086789;28;20040;-70
2023/06/13 03:31:33;;;;;;;11.15;5.45;;;;;;;;;;5076310;28;20389;-70
2023/06/13 03:35:13;;;;;;;13.15;5.65;;;;;;;;;;5085625;28;20403;-70
2023/06/13 03:38:54;;;;;;;8.65;4.82;;;;;;;;;;5086858;28;20040;-69
2023/06/13 03:42:34;;;;;;;10.50;4.93;;;;;;;;;;5083193;28;20036;-70
2023/06/13 03:46:14;;;;;;;8.60;4.75;;;;;;;;;;5082901;28;20110;-72
2023/06/13 03:49:55;;;;;;;10.35;4.45;;;;;;;;;;5077649;28;20557;-71
2023/06/13 03:53:35;;;;;;;11.40;4.70;;;;;;;;;;5081319;28;20113;-70
2023/06/13 03:57:15;;;;;;;9.18;4.28;;;;;;;;;;5082862;28;20050;-71
2023/06/13 04:00:57;;;;;;;13.07;5.15;;;;;;;;;;5086078;28;20047;-71
2023/06/13 04:04:37;;;;;;;8.32;4.38;;;;;;;;;;5082354;28;20053;-71
2023/06/13 04:08:19;;;;;;;11.50;4.50;;;;;;;;;;5075305;28;20500;-69
2023/06/13 04:11:57;;;;;;;8.38;4.40;;;;;;;;;;5082321;28;20080;-69
2023/06/13 04:15:37;;;;;;;8.73;4.50;;;;;;;;;;5084684;28;20043;-70
2023/06/13 04:19:19;;;;;;;12.55;4.57;;;;;;;;;;5086264;28;20130;-71
2023/06/13 04:23:01;;;;;;;11.02;4.70;;;;;;;;;;5084091;28;20496;-71
2023/06/13 04:26:40;;;;;;;11.38;5.10;;;;;;;;;;5083658;28;20097;-69
2023/06/13 04:30:21;;;;;;;12.00;4.82;;;;;;;;;;5079350;28;20032;-70
2023/06/13 04:34:03;;;;;;;10.20;5.32;;;;;;;;;;5086814;28;20395;-71
2023/06/13 04:37:43;;;;;;;16.25;5.97;;;;;;;;;;5082828;28;20048;-71
2023/06/13 04:41:23;;;;;;;10.95;5.00;;;;;;;;;;5082986;28;20162;-71
2023/06/13 04:45:03;;;;;;;14.38;5.35;;;;;;;;;;5082508;28;20036;-71
2023/06/13 04:48:43;;;;;;;13.75;5.70;;;;;;;;;;5085206;28;20086;-70
2023/06/13 04:52:24;;;;;;;11.85;4.50;;;;;;;;;;5081049;28;20067;-70
2023/06/13 04:56:04;;;;;;;11.75;4.85;;;;;;;;;;5080006;28;20044;-69
2023/06/13 04:59:44;;;;;;;10.88;4.80;;;;;;;;;;5085308;28;20077;-67
2023/06/13 05:03:26;;;;;;;8.70;4.57;;;;;;;;;;5084382;28;20315;-69
2023/06/13 05:06:50;;;;;;;9.55;4.78;;;;;;;;;;5082676;28;20044;-69
2023/06/13 05:09:18;;;;;;;9.82;4.40;;;;;;;;;;5083663;28;20036;-69
2023/06/13 05:11:45;;;;;;;13.27;4.80;;;;;;;;;;5082764;28;20129;-67
2023/06/13 05:14:11;;;;;;;15.10;4.65;;;;;;;;;;5083505;28;20112;-69
2023/06/13 05:16:37;;;;;;;11.02;4.07;;;;;;;;;;5076213;28;20056;-72
2023/06/13 05:19:43;;;;;;;12.52;4.57;;;;;;;;;;5076711;28;20517;-73
2023/06/13 05:23:24;;;;;;;10.93;4.40;;;;;;;;;;5080763;28;20043;-69
2023/06/13 05:27:04;;;;;;;13.05;4.63;;;;;;;;;;5086463;28;20594;-71
2023/06/13 05:30:45;;;;;;;11.57;4.75;;;;;;;;;;5080754;28;20121;-69
2023/06/13 05:34:26;;;;;;;13.40;4.30;;;;;;;;;;5086120;28;20055;-68
2023/06/13 05:38:09;;;;;;;12.05;4.50;;;;;;;;;;5085571;28;20052;-70
2023/06/13 05:41:46;;;;;;;16.70;5.10;;;;;;;;;;5088005;28;20062;-69
2023/06/13 05:44:46;;;;;;;16.17;5.15;;;;;;;;;;5077167;28;20055;-69
2023/06/13 05:47:52;;;;;;;16.23;4.90;;;;;;;;;;5067204;28;20219;-74
2023/06/13 05:51:33;;;;;;;13.82;5.10;;;;;;;;;;5057238;28;20525;-72
2023/06/13 05:55:14;;;;;;;15.65;5.07;;;;;;;;;;5069760;28;20048;-73
2023/06/13 05:58:54;;;;;;;12.38;5.50;;;;;;;;;;5070887;28;20500;-73
2023/06/13 06:02:35;;;;;;;10.50;5.03;;;;;;;;;;5082615;28;20036;-71
2023/06/13 06:05:37;;;;;;;18.70;5.65;;;;;;;;;;5077999;28;20054;-71
2023/06/13 06:08:03;;;;;;;23.48;6.00;;;;;;;;;;5082119;28;20507;-71
2023/06/13 06:10:29;;;;;;;14.93;4.85;;;;;;;;;;5084797;28;20563;-72
2023/06/13 06:12:55;;;;;;;16.58;5.43;;;;;;;;;;5085530;28;20052;-72
2023/06/13 06:15:22;;;;;;;15.20;5.65;;;;;;;;;;5086248;28;20526;-71
2023/06/13 06:17:50;;;;;;;12.20;5.00;;;;;;;;;;5088754;28;20439;-72
2023/06/13 06:20:17;;;;;;;13.00;5.00;;;;;;;;;;5077837;28;20097;-72
2023/06/13 06:22:48;;;;;;;13.15;5.25;;;;;;;;;;5083671;28;20439;-70
2023/06/13 06:25:19;;;;;;;12.80;5.10;;;;;;;;;;5084112;28;20119;-71
2023/06/13 06:27:55;;;;;;;11.07;4.65;;;;;;;;;;5086541;28;20499;-71
2023/06/13 06:30:21;;;;;;;10.15;4.47;;;;;;;;;;5089313;28;20067;-73
2023/06/13 06:32:48;;;;;;;9.23;4.47;;;;;;;;;;5083547;28;20109;-73
2023/06/13 06:35:14;;;;;;;9.15;4.28;;;;;;;;;;5086481;28;20043;-73
2023/06/13 06:37:42;;;;;;;12.77;4.60;;;;;;;;;;5085781;28;20055;-74
2023/06/13 06:40:11;;;;;;;16.10;4.22;;;;;;;;;;5080759;28;20056;-74
2023/06/13 06:42:37;;;;;;;14.50;4.40;;;;;;;;;;5078120;28;20131;-73
2023/06/13 06:45:44;;;;;;;15.65;4.93;;;;;;;;;;5075196;28;21505;-71
2023/06/13 06:49:24;;;;;;;10.30;5.13;;;;;;;;;;5084193;28;20052;-74
2023/06/13 06:53:04;;;;;;;12.48;5.03;;;;;;;;;;5085470;28;20452;-69
2023/06/13 06:56:45;;;;;;;13.00;5.13;;;;;;;;;;5085832;28;20047;-69
2023/06/13 07:00:25;;;;;;;11.57;4.68;;;;;;;;;;5088104;28;20051;-70
2023/06/13 07:04:05;;;;;;;11.70;4.28;;;;;;;;;;5083098;28;20052;-71
2023/06/13 07:07:46;;;;;;;11.35;4.07;;;;;;;;;;5086540;28;20048;-71
2023/06/13 07:11:27;;;;;;;8.60;3.85;;;;;;;;;;5087002;28;20056;-70
2023/06/13 07:15:06;;;;;;;8.63;4.32;;;;;;;;;;5082708;28;20839;-70
2023/06/13 07:18:47;;;;;;;12.98;3.90;;;;;;;;;;5083954;28;20097;-70
2023/06/13 07:22:27;;;;;;;12.50;3.95;;;;;;;;;;5083053;28;20471;-70
2023/06/13 07:26:09;;;;;;;11.57;4.50;;;;;;;;;;5088131;28;20090;-70
2023/06/13 07:29:49;;;;;;;11.32;4.13;;;;;;;;;;5081946;28;20101;-70
2023/06/13 07:33:30;;;;;;;7.80;3.40;;;;;;;;;;5085666;28;20040;-70
2023/06/13 07:37:11;;;;;;;9.27;3.80;;;;;;;;;;5084146;28;20044;-71
2023/06/13 07:40:51;;;;;;;10.35;3.35;;;;;;;;;;5089713;28;20051;-74
2023/06/13 07:44:32;;;;;;;12.68;3.35;;;;;;;;;;5087203;28;20496;-70
2023/06/13 07:48:12;;;;;;;5.85;3.40;;;;;;;;;;5088516;28;20072;-72
2023/06/13 07:51:52;;;;;;;8.77;3.70;;;;;;;;;;5086367;28;20043;-70
2023/06/13 07:55:32;;;;;;;6.63;3.22;;;;;;;;;;5085687;28;20392;-72
2023/06/13 07:59:13;;;;;;;8.95;3.28;;;;;;;;;;5087088;28;20044;-72
2023/06/13 08:02:53;;;;;;;7.18;3.28;;;;;;;;;;5083655;28;20105;-76
2023/06/13 08:06:33;;;;;;;10.23;2.95;;;;;;;;;;5086493;28;20052;-71
2023/06/13 08:10:14;;;;;;;6.28;3.00;;;;;;;;;;5088031;28;20052;-72
2023/06/13 08:13:54;;;;;;;11.35;3.35;;;;;;;;;;5081618;28;20083;-70
2023/06/13 08:17:41;;;;;;;5.30;3.10;;;;;;;;;;5089009;28;20039;-72
2023/06/13 08:21:18;;;;;;;7.28;3.10;;;;;;;;;;5082110;28;20523;-76
2023/06/13 08:24:58;;;;;;;7.25;3.92;;;;;;;;;;5081616;28;20055;-71
2023/06/13 08:28:38;;;;;;;10.18;3.95;;;;;;;;;;5090413;28;20746;-81
2023/06/13 08:32:19;;;;;;;9.40;3.90;;;;;;;;;;5094988;28;20323;-79
2023/06/13 08:35:59;;;;;;;8.20;3.80;;;;;;;;;;5087445;28;20086;-72
2023/06/13 08:39:39;;;;;;;8.05;3.53;;;;;;;;;;5082625;28;20626;-74
2023/06/13 08:43:19;;;;;;;7.60;3.50;;;;;;;;;;5087666;28;20537;-72
2023/06/13 08:47:00;;;;;;;10.15;3.55;;;;;;;;;;5085393;28;20044;-72
2023/06/13 08:50:41;;;;;;;9.73;3.47;;;;;;;;;;5085855;28;20036;-72
2023/06/13 08:54:21;;;;;;;12.23;3.88;;;;;;;;;;5086060;28;20442;-78
2023/06/13 08:58:02;;;;;;;7.50;3.70;;;;;;;;;;5097607;28;20044;-80
2023/06/13 09:01:44;;;;;;;11.40;3.80;;;;;;;;;;5087927;28;20044;-74
2023/06/13 09:05:25;;;;;;;8.00;3.70;;;;;;;;;;5084261;28;20083;-71
2023/06/13 09:09:07;;;;;;;8.05;3.72;;;;;;;;;;5087497;28;20082;-73
2023/06/13 09:12:51;;;;;;;9.18;3.80;;;;;;;;;;5084832;28;20122;-73
2023/06/13 09:16:28;;;;;;;12.38;3.70;;;;;;;;;;5086568;28;20048;-74
2023/06/13 09:20:08;;;;;;;6.53;3.13;;;;;;;;;;5078262;28;20051;-70
2023/06/13 09:23:49;;;;;;;8.57;3.92;;;;;;;;;;5080276;28;20451;-73
2023/06/13 09:27:29;;;;;;;8.50;3.50;;;;;;;;;;5087781;28;20131;-72
2023/06/13 09:31:11;;;;;;;5.15;3.30;;;;;;;;;;5081461;28;20399;-73
2023/06/13 09:34:55;;;;;;;9.98;3.15;;;;;;;;;;5079210;28;20768;-73
2023/06/13 09:38:35;;;;;;;7.38;3.45;;;;;;;;;;5083172;28;20060;-74
2023/06/13 09:42:18;;;;;;;7.00;3.03;;;;;;;;;;5085066;28;20077;-74
2023/06/13 09:45:58;;;;;;;7.50;3.17;;;;;;;;;;5086600;28;20048;-74
2023/06/13 09:49:39;;;;;;;5.53;2.88;;;;;;;;;;5084372;28;20549;-72
2023/06/13 09:53:19;;;;;;;6.90;3.22;;;;;;;;;;5091040;28;20072;-74
2023/06/13 09:57:00;;;;;;;5.15;3.15;;;;;;;;;;5090174;28;20127;-73
2023/06/13 10:00:41;;;;;;;8.10;2.90;;;;;;;;;;5084079;28;20273;-73
2023/06/13 10:04:21;;;;;;;8.32;2.80;;;;;;;;;;5085369;28;20036;-70
2023/06/13 10:08:02;;;;;;;6.30;2.80;;;;;;;;;;5098287;28;20052;-73
2023/06/13 10:11:43;;;;;;;7.82;3.13;;;;;;;;;;5090453;28;20112;-73
2023/06/13 10:15:23;;;;;;;5.82;2.88;;;;;;;;;;5090002;28;20336;-73
2023/06/13 10:19:10;;;;;;;8.50;2.90;;;;;;;;;;5090140;28;20047;-73
2023/06/13 10:22:50;;;;;;;5.88;2.85;;;;;;;;;;5089700;28;20048;-71
2023/06/13 10:26:31;;;;;;;5.72;2.90;;;;;;;;;;5087486;28;20051;-71
2023/06/13 10:30:22;;;;;;;5.55;2.90;;;;;;;;;;5086157;28;20062;-71
2023/06/13 10:33:35;;;;;;;11.43;3.70;;;;;;;;;;5085898;28;20036;-72
2023/06/13 10:37:13;;;;;;;14.88;3.80;;;;;;;;;;5088195;28;20322;-75
2023/06/13 10:40:38;;;;;;;10.30;3.80;;;;;;;;;;5088646;28;20037;-71
2023/06/13 10:44:33;;;;;;;10.00;3.88;;;;;;;;;;5088881;28;20117;-72
2023/06/13 10:48:14;;;;;;;9.13;3.27;;;;;;;;;;5085345;28;20126;-72
2023/06/13 10:51:55;;;;;;;7.28;2.85;;;;;;;;;;5087194;28;20044;-71
2023/06/13 10:55:44;;;;;;;6.28;3.08;;;;;;;;;;5086439;28;20510;-72
2023/06/13 10:59:24;;;;;;;18.73;3.40;;;;;;;;;;5087337;28;20165;-70
2023/06/13 11:03:05;;;;;;;11.20;3.45;;;;;;;;;;5084549;28;20461;-71
2023/06/13 11:06:45;;;;;;;10.20;2.88;;;;;;;;;;5088537;28;20128;-72
2023/06/13 11:10:31;;;;;;;10.10;3.22;;;;;;;;;;5084915;28;20553;-72
2023/06/13 11:14:11;;;;;;;10.48;3.60;;;;;;;;;;5083445;28;20052;-70
2023/06/13 11:17:55;;;;;;;6.85;2.80;;;;;;;;;;5087114;28;20048;-73
2023/06/13 11:21:34;;;;;;;7.53;2.70;;;;;;;;;;5087548;28;20036;-73
2023/06/13 11:25:14;;;;;;;12.88;2.90;;;;;;;;;;5082420;28;20498;-73
2023/06/13 11:28:55;;;;;;;9.30;3.00;;;;;;;;;;5082440;28;20047;-79
2023/06/13 11:32:35;;;;;;;12.45;3.17;;;;;;;;;;5092968;28;20049;-79
2023/06/13 11:36:16;;;;;;;8.85;2.95;;;;;;;;;;5092236;28;20040;-79
2023/06/13 11:39:56;;;;;;;10.40;3.40;;;;;;;;;;5084662;28;20036;-72
2023/06/13 11:43:36;;;;;;;10.93;3.63;;;;;;;;;;5085906;28;20460;-72
2023/06/13 11:47:16;;;;;;;5.53;2.55;;;;;;;;;;5088074;28;20043;-72
2023/06/13 11:50:57;;;;;;;5.68;1.83;;;;;;;;;;5088578;28;20772;-71
2023/06/13 11:54:40;;;;;;;8.63;2.70;;;;;;;;;;5085480;28;20044;-73
2023/06/13 11:58:27;;;;;;;5.90;2.28;;;;;;;;;;5082065;28;20548;-72
2023/06/13 12:02:07;;;;;;;5.72;2.30;;;;;;;;;;5084770;28;20047;-71
2023/06/13 12:05:53;;;;;;;7.93;2.40;;;;;;;;;;5078308;28;20436;-72
2023/06/13 12:09:34;;;;;;;5.68;2.20;;;;;;;;;;5083239;28;20537;-75
2023/06/13 12:13:17;;;;;;;6.65;2.65;;;;;;;;;;5089666;28;20047;-75
2023/06/13 12:16:57;;;;;;;9.07;3.08;;;;;;;;;;5083676;28;20586;-73
2023/06/13 12:20:46;;;;;;;7.95;2.40;;;;;;;;;;5083841;28;20053;-73
2023/06/13 12:24:27;;;;;;;8.70;2.80;;;;;;;;;;5083342;28;20059;-72
2023/06/13 12:28:12;;;;;;;7.78;2.70;;;;;;;;;;5082068;28;20092;-72
2023/06/13 12:31:52;;;;;;;7.80;2.60;;;;;;;;;;5085739;28;20519;-74
2023/06/13 12:35:31;;;;;;;4.82;2.17;;;;;;;;;;5081733;28;20415;-72
2023/06/13 12:39:14;;;;;;;6.53;2.42;;;;;;;;;;5086217;28;20044;-73
2023/06/13 12:42:52;;;;;;;5.88;2.40;;;;;;;;;;5081136;28;20052;-74
2023/06/13 12:46:38;;;;;;;4.47;2.28;;;;;;;;;;5081491;28;20707;-72
2023/06/13 12:49:59;;;;;;;;;;;;;;;;;;5085583;28;20464;-72
2023/06/13 12:53:45;;;;;;;12.88;2.40;;;;;;;;;;5076576;28;19920;-72
2023/06/13 12:56:55;;;;;;;6.78;2.35;;;;;;;;;;5084723;28;20058;-74
2023/06/13 13:00:39;;;;;;;5.00;2.78;;;;;;;;;;5085310;28;20054;-77
2023/06/13 13:04:19;;;;;;;4.18;1.92;;;;;;;;;;5088321;28;20047;-72
2023/06/13 13:08:01;;;;;;;6.18;2.20;;;;;;;;;;5085479;28;20063;-72
2023/06/13 13:11:43;;;;;;;8.88;2.50;;;;;;;;;;5081059;28;20052;-73
2023/06/13 13:15:23;;;;;;;7.72;2.53;;;;;;;;;;5078922;28;20082;-71
2023/06/13 13:19:03;;;;;;;4.97;2.15;;;;;;;;;;5086611;28;20201;-73
2023/06/13 13:22:43;;;;;;;4.82;2.30;;;;;;;;;;5085348;28;20564;-75
2023/06/13 13:26:25;;;;;;;10.98;2.63;;;;;;;;;;5085720;28;20495;-72
2023/06/13 13:30:07;;;;;;;10.85;2.40;;;;;;;;;;5084164;28;20184;-71
2023/06/13 13:33:46;;;;;;;10.88;2.25;;;;;;;;;;5083463;28;20036;-72
2023/06/13 13:37:26;;;;;;;3.95;1.83;;;;;;;;;;5085106;28;20506;-75
2023/06/13 13:41:07;;;;;;;7.30;2.42;;;;;;;;;;5078115;28;20101;-73
2023/06/13 13:44:47;;;;;;;4.93;2.10;;;;;;;;;;5086699;28;20043;-76
2023/06/13 13:48:29;;;;;;;5.72;2.45;;;;;;;;;;5085284;28;20044;-72
2023/06/13 13:52:09;;;;;;;10.25;2.75;;;;;;;;;;5085524;28;20063;-73
2023/06/13 13:55:49;;;;;;;8.82;3.10;;;;;;;;;;5084465;28;20043;-73
2023/06/13 13:59:29;;;;;;;7.55;3.17;;;;;;;;;;5081413;28;20114;-72
2023/06/13 14:03:10;;;;;;;7.47;2.88;;;;;;;;;;5082401;28;20569;-74
2023/06/13 14:06:50;;;;;;;6.20;2.67;;;;;;;;;;5080038;28;20123;-73
2023/06/13 14:10:30;;;;;;;5.90;2.88;;;;;;;;;;5083249;28;20254;-71
2023/06/13 14:14:11;;;;;;;6.47;2.92;;;;;;;;;;5082964;28;20115;-72
2023/06/13 14:17:52;;;;;;;9.93;3.40;;;;;;;;;;5080499;28;20051;-77
2023/06/13 14:21:32;;;;;;;10.63;4.50;;;;;;;;;;5083682;28;20040;-79
2023/06/13 14:25:12;;;;;;;10.13;3.15;;;;;;;;;;5075478;28;20048;-73
2023/06/13 14:28:52;;;;;;;11.38;4.13;;;;;;;;;;5081863;28;20048;-73
2023/06/13 14:32:33;;;;;;;9.63;3.50;;;;;;;;;;5083637;28;20060;-74
2023/06/13 14:36:13;;;;;;;7.97;3.53;;;;;;;;;;5087452;28;20468;-73
2023/06/13 14:39:56;;;;;;;10.68;3.50;;;;;;;;;;5086543;28;20119;-72
2023/06/13 14:43:40;;;;;;;9.27;4.03;;;;;;;;;;5089353;28;20036;-75
2023/06/13 14:47:19;;;;;;;9.90;3.50;;;;;;;;;;5089782;28;20047;-73
2023/06/13 14:50:59;;;;;;;8.00;3.47;;;;;;;;;;5082105;28;20560;-78
2023/06/13 14:54:01;;;;;;;11.52;3.58;;;;;;;;;;5083776;28;20040;-78
2023/06/13 14:56:27;;;;;;;13.20;3.65;;;;;;;;;;5090042;28;20112;-78
2023/06/13 14:58:56;;;;;;;11.13;3.88;;;;;;;;;;5085012;28;20122;-70
2023/06/13 15:01:22;;;;;;;11.30;3.97;;;;;;;;;;5072208;28;20055;-72
2023/06/13 15:03:49;;;;;;;13.27;4.22;;;;;;;;;;5072508;28;20640;-66
2023/06/13 15:06:20;;;;;;;13.55;4.22;;;;;;;;;;5073108;28;20059;-69
2023/06/13 15:08:46;;;;;;;19.48;4.65;;;;;;;;;;5077299;28;20101;-73
2023/06/13 15:11:12;;;;;;;13.77;4.57;;;;;;;;;;5083119;28;20196;-72
2023/06/13 15:13:40;;;;;;;16.90;5.15;;;;;;;;;;5082116;28;20044;-79
2023/06/13 15:16:07;;;;;;;10.05;4.47;;;;;;;;;;5086313;28;20424;-71
2023/06/13 15:18:36;;;;;;;10.65;3.63;;;;;;;;;;5082387;28;20052;-71
2023/06/13 15:21:06;;;;;;;15.98;4.05;;;;;;;;;;5087318;28;20044;-72
2023/06/13 15:23:32;;;;;;;13.88;3.55;;;;;;;;;;5088686;28;20495;-71
2023/06/13 15:26:00;;;;;;;10.40;3.75;;;;;;;;;;5089000;28;20492;-73
2023/06/13 15:28:26;;;;;;;11.98;4.15;;;;;;;;;;5087895;28;20044;-72
2023/06/13 15:30:53;;;;;;;12.63;3.95;;;;;;;;;;5090646;28;20052;-70
2023/06/13 15:33:22;;;;;;;10.77;3.90;;;;;;;;;;5080615;28;20129;-68
2023/06/13 15:35:49;;;;;;;8.70;3.80;;;;;;;;;;5085864;28;20059;-70
2023/06/13 15:38:17;;;;;;;9.68;3.70;;;;;;;;;;5086543;28;20040;-71
2023/06/13 15:40:45;;;;;;;18.88;3.40;;;;;;;;;;5090399;28;20487;-75
2023/06/13 15:43:12;;;;;;;26.00;4.68;;;;;;;;;;5080056;28;20041;-73
2023/06/13 15:45:38;;;;;;;12.75;3.28;;;;;;;;;;5082720;28;20499;-71
2023/06/13 15:48:07;;;;;;;11.45;3.42;;;;;;;;;;5086954;28;20071;-72
2023/06/13 15:50:34;;;;;;;15.15;4.32;;;;;;;;;;5089987;28;20215;-72
2023/06/13 15:53:02;;;;;;;13.57;3.50;;;;;;;;;;5089503;28;20048;-72
2023/06/13 15:55:30;;;;;;;9.75;3.05;;;;;;;;;;5083152;28;20052;-73
2023/06/13 15:57:55;;;;;;;8.80;3.13;;;;;;;;;;5088903;28;20060;-73
2023/06/13 16:00:22;;;;;;;8.52;3.20;;;;;;;;;;5084301;28;20799;-71
2023/06/13 16:02:50;;;;;;;9.00;3.33;;;;;;;;;;5086501;28;20427;-70
2023/06/13 16:05:17;;;;;;;8.90;3.00;;;;;;;;;;5101932;27;20044;-72
2023/06/13 16:07:46;;;;;;;13.07;3.50;;;;;;;;;;5079339;28;20048;-72
2023/06/13 16:10:13;;;;;;;15.25;4.18;;;;;;;;;;5084860;28;20056;-71
2023/06/13 16:12:39;;;;;;;25.85;4.57;;;;;;;;;;5085588;28;20568;-72
2023/06/13 16:15:07;;;;;;;21.88;4.85;;;;;;;;;;5077331;28;20476;-70
2023/06/13 16:17:37;;;;;;;21.00;4.70;;;;;;;;;;5081583;28;20574;-71
2023/06/13 16:20:07;;;;;;;16.10;3.85;;;;;;;;;;5085161;28;20526;-76
2023/06/13 16:22:35;;;;;;;18.67;5.30;;;;;;;;;;5088397;28;20394;-73
2023/06/13 16:25:01;;;;;;;15.30;4.53;;;;;;;;;;5089988;28;20052;-70
2023/06/13 16:27:28;;;;;;;14.57;4.30;;;;;;;;;;5087299;28;20059;-73
2023/06/13 16:30:05;;;;;;;14.85;4.97;;;;;;;;;;5088642;28;20040;-72
2023/06/13 16:32:33;;;;;;;18.17;4.95;;;;;;;;;;5090397;28;20079;-74
2023/06/13 16:35:09;;;;;;;13.80;3.80;;;;;;;;;;5082624;28;20077;-72
2023/06/13 16:37:40;;;;;;;14.48;4.20;;;;;;;;;;5088398;28;20052;-71
2023/06/13 16:40:08;;;;;;;21.85;4.78;;;;;;;;;;5084413;28;20048;-70
2023/06/13 16:42:37;;;;;;;13.63;3.60;;;;;;;;;;5088095;28;20171;-72
2023/06/13 16:45:04;;;;;;;12.45;3.65;;;;;;;;;;5088013;28;20052;-71
2023/06/13 16:47:31;;;;;;;12.30;3.08;;;;;;;;;;5084896;28;20105;-69
2023/06/13 16:49:59;;;;;;;20.80;3.75;;;;;;;;;;5087886;28;20088;-70
2023/06/13 16:52:31;;;;;;;11.93;3.05;;;;;;;;;;5082469;28;20054;-71
2023/06/13 16:55:01;;;;;;;16.23;3.05;;;;;;;;;;5083931;28;20064;-72
2023/06/13 16:57:30;;;;;;;20.23;3.17;;;;;;;;;;5080790;28;20156;-73
2023/06/13 16:59:57;;;;;;;11.35;3.08;;;;;;;;;;5082876;28;20047;-76
2023/06/13 17:03:03;;;;;;;12.60;3.47;;;;;;;;;;5089150;28;20411;-71
2023/06/13 17:06:43;;;;;;;9.82;2.83;;;;;;;;;;5089641;28;20044;-70
2023/06/13 17:10:24;;;;;;;14.93;3.03;;;;;;;;;;5082825;28;20043;-72
2023/06/13 17:14:05;;;;;;;9.93;2.70;;;;;;;;;;5084982;28;20467;-72
2023/06/13 17:17:46;;;;;;;14.02;3.83;;;;;;;;;;5090438;28;20046;-71
2023/06/13 17:21:26;;;;;;;8.65;3.03;;;;;;;;;;5073289;28;20047;-73
2023/06/13 17:25:10;;;;;;;9.70;2.83;;;;;;;;;;5088353;28;20044;-70
2023/06/13 17:28:52;;;;;;;11.15;2.80;;;;;;;;;;5083172;28;20039;-73
2023/06/13 17:32:32;;;;;;;7.75;2.50;;;;;;;;;;5081356;28;20036;-71
2023/06/13 17:36:13;;;;;;;15.13;2.72;;;;;;;;;;5083310;28;20055;-70
2023/06/13 17:39:54;;;;;;;10.18;2.83;;;;;;;;;;5081221;28;20040;-72
2023/06/13 17:43:37;;;;;;;11.57;2.92;;;;;;;;;;5082173;28;20062;-71
2023/06/13 17:47:20;;;;;;;14.13;3.15;;;;;;;;;;5079408;28;20056;-74
2023/06/13 17:51:02;;;;;;;19.95;3.70;;;;;;;;;;5079047;28;20093;-77
2023/06/13 17:54:41;;;;;;;19.30;3.80;;;;;;;;;;5089692;28;20048;-72
2023/06/13 17:58:22;;;;;;;19.17;3.78;;;;;;;;;;5087669;28;20040;-73
2023/06/13 18:02:02;;;;;;;16.58;3.92;;;;;;;;;;5084275;28;20150;-70
2023/06/13 18:05:45;;;;;;;17.42;3.78;;;;;;;;;;5083869;28;20040;-73
2023/06/13 18:09:27;;;;;;;17.38;4.05;;;;;;;;;;5081870;28;20036;-70
2023/06/13 18:13:07;;;;;;;14.60;3.53;;;;;;;;;;5079299;28;20075;-70
2023/06/13 18:16:48;;;;;;;19.33;3.58;;;;;;;;;;5081261;28;20492;-71
2023/06/13 18:20:30;;;;;;;17.80;4.03;;;;;;;;;;5087005;28;20101;-73
2023/06/13 18:24:09;;;;;;;12.57;3.35;;;;;;;;;;5080478;28;20051;-68
2023/06/13 18:26:53;;;;;;;14.63;2.92;;;;;;;;;;5078710;28;20419;-68
2023/06/13 18:29:21;;;;;;;12.93;2.80;;;;;;;;;;5082303;28;20055;-69
2023/06/13 18:31:48;;;;;;;12.68;3.13;;;;;;;;;;5072666;28;20063;-65
2023/06/13 18:34:58;;;;;;;12.27;2.97;;;;;;;;;;5071868;28;21300;-66
2023/06/13 18:38:38;;;;;;;14.93;2.70;;;;;;;;;;5072296;28;20097;-69
2023/06/13 18:42:24;;;;;;;11.75;2.95;;;;;;;;;;5078114;28;20097;-69
2023/06/13 18:46:04;;;;;;;5.27;2.03;;;;;;;;;;5079124;28;20044;-71
2023/06/13 18:49:45;;;;;;;5.85;1.85;;;;;;;;;;5080538;28;20047;-67
2023/06/13 18:52:50;;;;;;;7.65;2.08;;;;;;;;;;5073004;28;20503;-72
2023/06/13 18:55:17;;;;;;;10.60;3.00;;;;;;;;;;5082262;28;20044;-68
2023/06/13 18:57:45;;;;;;;2.88;1.33;;;;;;;;;;5078549;28;20040;-72
2023/06/13 19:00:14;;;;;;;6.60;2.00;;;;;;;;;;5082301;28;20048;-72
2023/06/13 19:02:40;;;;;;;5.80;2.72;;;;;;;;;;5086259;28;20040;-70
2023/06/13 19:05:07;;;;;;;9.35;2.80;;;;;;;;;;5084276;28;20201;-69
2023/06/13 19:07:34;;;;;;;10.13;2.85;;;;;;;;;;5079648;28;20060;-74
2023/06/13 19:10:01;;;;;;;10.35;2.80;;;;;;;;;;5080621;28;20040;-71
2023/06/13 19:12:27;;;;;;;6.38;2.30;;;;;;;;;;5074333;28;20070;-73
2023/06/13 19:14:57;;;;;;;5.70;2.25;;;;;;;;;;5061949;28;20063;-69
2023/06/13 19:17:25;;;;;;;8.30;2.53;;;;;;;;;;5077465;28;20515;-69
2023/06/13 19:19:53;;;;;;;5.38;2.22;;;;;;;;;;5081506;28;20067;-69
2023/06/13 19:22:19;;;;;;;7.00;2.95;;;;;;;;;;5081361;28;20109;-70
2023/06/13 19:24:47;;;;;;;7.03;2.70;;;;;;;;;;5081421;28;20598;-71
2023/06/13 19:27:14;;;;;;;10.48;2.40;;;;;;;;;;5081313;28;20136;-72
2023/06/13 19:29:43;;;;;;;7.07;3.10;;;;;;;;;;5083496;28;20766;-73
2023/06/13 19:32:09;;;;;;;7.35;3.03;;;;;;;;;;5082310;28;20541;-70
2023/06/13 19:34:37;;;;;;;5.40;2.38;;;;;;;;;;5083823;28;20090;-73
2023/06/13 19:37:04;;;;;;;7.10;3.15;;;;;;;;;;5076364;28;20785;-71
2023/06/13 19:39:32;;;;;;;10.20;3.78;;;;;;;;;;5083085;28;20047;-73
2023/06/13 19:42:38;;;;;;;14.68;3.40;;;;;;;;;;5075361;28;20130;-73
2023/06/13 19:46:18;;;;;;;10.88;3.13;;;;;;;;;;5084441;28;20048;-74
2023/06/13 19:49:59;;;;;;;8.27;3.30;;;;;;;;;;5070676;28;20500;-74
2023/06/13 19:53:43;;;;;;;8.20;3.13;;;;;;;;;;5078322;28;20048;-73